sensor_id;sensor_type;location;lat;lon;timestamp;P1;durP1;ratioP1;P2;durP2;ratioP2
9968;SDS011;5025;48.890;9.278;2023-04-24T00:02:18;1.10;;;1.10;;
9968;SDS011;5025;48.890;9.278;2023-04-24T00:04:43;0.93;;;0.80;;
9968;SDS011;5025;48.890;9.278;2023-04-24T00:07:11;1.03;;;1.03;;
9968;SDS011;5025;48.890;9.278;2023-04-24T00:09:38;0.80;;;0.80;;
9968;SDS011;5025;48.890;9.278;2023-04-24T00:12:03;0.70;;;0.70;;
9968;SDS011;5025;48.890;9.278;2023-04-24T00:14:29;0.97;;;0.90;;
9968;SDS011;5025;48.890;9.278;2023-04-24T00:16:57;0.97;;;0.90;;
9968;SDS011;5025;48.890;9.278;2023-04-24T00:19:23;1.13;;;0.90;;
9968;SDS011;5025;48.890;9.278;2023-04-24T00:21:48;1.10;;;0.90;;
9968;SDS011;5025;48.890;9.278;2023-04-24T00:24:16;0.87;;;0.83;;
9968;SDS011;5025;48.890;9.278;2023-04-24T00:26:43;0.70;;;0.70;;
9968;SDS011;5025;48.890;9.278;2023-04-24T00:29:09;0.80;;;0.80;;
9968;SDS011;5025;48.890;9.278;2023-04-24T00:31:34;0.80;;;0.80;;
9968;SDS011;5025;48.890;9.278;2023-04-24T00:34:00;0.80;;;0.80;;
9968;SDS011;5025;48.890;9.278;2023-04-24T00:36:27;1.17;;;1.07;;
9968;SDS011;5025;48.890;9.278;2023-04-24T00:38:52;1.00;;;1.00;;
9968;SDS011;5025;48.890;9.278;2023-04-24T00:41:18;0.90;;;0.90;;
9968;SDS011;5025;48.890;9.278;2023-04-24T00:43:44;1.07;;;0.80;;
9968;SDS011;5025;48.890;9.278;2023-04-24T00:46:09;0.90;;;0.90;;
9968;SDS011;5025;48.890;9.278;2023-04-24T00:48:35;1.23;;;0.80;;
9968;SDS011;5025;48.890;9.278;2023-04-24T00:51:03;1.00;;;0.90;;
9968;SDS011;5025;48.890;9.278;2023-04-24T00:53:29;0.80;;;0.80;;
9968;SDS011;5025;48.890;9.278;2023-04-24T00:55:54;1.03;;;0.90;;
9968;SDS011;5025;48.890;9.278;2023-04-24T00:58:20;0.83;;;0.73;;
9968;SDS011;5025;48.890;9.278;2023-04-24T01:00:46;1.13;;;0.90;;
9968;SDS011;5025;48.890;9.278;2023-04-24T01:03:12;1.20;;;0.87;;
9968;SDS011;5025;48.890;9.278;2023-04-24T01:05:39;0.93;;;0.93;;
9968;SDS011;5025;48.890;9.278;2023-04-24T01:08:04;2.20;;;0.73;;
9968;SDS011;5025;48.890;9.278;2023-04-24T01:10:29;1.57;;;0.80;;
9968;SDS011;5025;48.890;9.278;2023-04-24T01:12:58;0.90;;;0.90;;
9968;SDS011;5025;48.890;9.278;2023-04-24T01:15:24;0.73;;;0.70;;
9968;SDS011;5025;48.890;9.278;2023-04-24T01:17:49;0.93;;;0.60;;
9968;SDS011;5025;48.890;9.278;2023-04-24T01:20:15;0.93;;;0.90;;
9968;SDS011;5025;48.890;9.278;2023-04-24T01:22:40;0.63;;;0.63;;
9968;SDS011;5025;48.890;9.278;2023-04-24T01:25:07;0.70;;;0.70;;
9968;SDS011;5025;48.890;9.278;2023-04-24T01:27:32;0.67;;;0.67;;
9968;SDS011;5025;48.890;9.278;2023-04-24T01:29:58;0.50;;;0.50;;
9968;SDS011;5025;48.890;9.278;2023-04-24T01:32:23;0.70;;;0.70;;
9968;SDS011;5025;48.890;9.278;2023-04-24T01:34:49;0.70;;;0.70;;
9968;SDS011;5025;48.890;9.278;2023-04-24T01:37:15;0.87;;;0.87;;
9968;SDS011;5025;48.890;9.278;2023-04-24T01:39:41;0.90;;;0.90;;
9968;SDS011;5025;48.890;9.278;2023-04-24T01:42:07;0.60;;;0.60;;
9968;SDS011;5025;48.890;9.278;2023-04-24T01:44:33;0.70;;;0.70;;
9968;SDS011;5025;48.890;9.278;2023-04-24T01:46:59;0.80;;;0.80;;
9968;SDS011;5025;48.890;9.278;2023-04-24T01:49:26;0.73;;;0.70;;
9968;SDS011;5025;48.890;9.278;2023-04-24T01:51:51;1.47;;;1.00;;
9968;SDS011;5025;48.890;9.278;2023-04-24T01:54:17;0.87;;;0.70;;
9968;SDS011;5025;48.890;9.278;2023-04-24T01:56:42;1.20;;;0.80;;
9968;SDS011;5025;48.890;9.278;2023-04-24T01:59:11;0.70;;;0.70;;
9968;SDS011;5025;48.890;9.278;2023-04-24T02:01:38;0.70;;;0.70;;
9968;SDS011;5025;48.890;9.278;2023-04-24T02:04:04;1.10;;;0.80;;
9968;SDS011;5025;48.890;9.278;2023-04-24T02:06:30;0.70;;;0.70;;
9968;SDS011;5025;48.890;9.278;2023-04-24T02:08:56;0.90;;;0.90;;
9968;SDS011;5025;48.890;9.278;2023-04-24T02:11:23;0.80;;;0.80;;
9968;SDS011;5025;48.890;9.278;2023-04-24T02:13:48;1.17;;;0.90;;
9968;SDS011;5025;48.890;9.278;2023-04-24T02:16:14;0.93;;;0.80;;
9968;SDS011;5025;48.890;9.278;2023-04-24T02:18:39;1.20;;;0.80;;
9968;SDS011;5025;48.890;9.278;2023-04-24T02:21:04;0.83;;;0.70;;
9968;SDS011;5025;48.890;9.278;2023-04-24T02:23:30;1.20;;;0.83;;
9968;SDS011;5025;48.890;9.278;2023-04-24T02:25:55;1.03;;;0.77;;
9968;SDS011;5025;48.890;9.278;2023-04-24T02:28:20;1.53;;;0.80;;
9968;SDS011;5025;48.890;9.278;2023-04-24T02:30:46;0.77;;;0.77;;
9968;SDS011;5025;48.890;9.278;2023-04-24T02:33:11;0.77;;;0.73;;
9968;SDS011;5025;48.890;9.278;2023-04-24T02:35:37;0.70;;;0.70;;
9968;SDS011;5025;48.890;9.278;2023-04-24T02:38:02;0.93;;;0.70;;
9968;SDS011;5025;48.890;9.278;2023-04-24T02:40:28;0.80;;;0.80;;
9968;SDS011;5025;48.890;9.278;2023-04-24T02:42:54;0.70;;;0.70;;
9968;SDS011;5025;48.890;9.278;2023-04-24T02:45:19;0.80;;;0.67;;
9968;SDS011;5025;48.890;9.278;2023-04-24T02:47:45;0.80;;;0.80;;
9968;SDS011;5025;48.890;9.278;2023-04-24T02:50:10;0.80;;;0.80;;
9968;SDS011;5025;48.890;9.278;2023-04-24T02:52:35;1.00;;;0.87;;
9968;SDS011;5025;48.890;9.278;2023-04-24T02:55:01;0.80;;;0.80;;
9968;SDS011;5025;48.890;9.278;2023-04-24T02:57:27;0.70;;;0.70;;
9968;SDS011;5025;48.890;9.278;2023-04-24T02:59:52;1.00;;;0.80;;
9968;SDS011;5025;48.890;9.278;2023-04-24T03:02:17;1.40;;;1.00;;
9968;SDS011;5025;48.890;9.278;2023-04-24T03:04:43;0.90;;;0.90;;
9968;SDS011;5025;48.890;9.278;2023-04-24T03:07:08;0.80;;;0.80;;
9968;SDS011;5025;48.890;9.278;2023-04-24T03:09:33;0.90;;;0.90;;
9968;SDS011;5025;48.890;9.278;2023-04-24T03:11:59;0.73;;;0.70;;
9968;SDS011;5025;48.890;9.278;2023-04-24T03:14:25;1.73;;;0.80;;
9968;SDS011;5025;48.890;9.278;2023-04-24T03:16:50;0.90;;;0.87;;
9968;SDS011;5025;48.890;9.278;2023-04-24T03:19:16;0.70;;;0.67;;
9968;SDS011;5025;48.890;9.278;2023-04-24T03:21:41;0.80;;;0.80;;
9968;SDS011;5025;48.890;9.278;2023-04-24T03:24:07;0.90;;;0.70;;
9968;SDS011;5025;48.890;9.278;2023-04-24T03:26:33;0.83;;;0.80;;
9968;SDS011;5025;48.890;9.278;2023-04-24T03:28:58;1.07;;;1.00;;
9968;SDS011;5025;48.890;9.278;2023-04-24T03:31:23;0.80;;;0.80;;
9968;SDS011;5025;48.890;9.278;2023-04-24T03:33:49;0.80;;;0.80;;
9968;SDS011;5025;48.890;9.278;2023-04-24T03:36:14;0.80;;;0.80;;
9968;SDS011;5025;48.890;9.278;2023-04-24T03:38:40;0.97;;;0.97;;
9968;SDS011;5025;48.890;9.278;2023-04-24T03:41:05;0.90;;;0.90;;
9968;SDS011;5025;48.890;9.278;2023-04-24T03:43:30;0.70;;;0.70;;
9968;SDS011;5025;48.890;9.278;2023-04-24T03:45:58;0.77;;;0.77;;
9968;SDS011;5025;48.890;9.278;2023-04-24T03:48:23;1.03;;;0.80;;
9968;SDS011;5025;48.890;9.278;2023-04-24T03:50:49;0.80;;;0.80;;
9968;SDS011;5025;48.890;9.278;2023-04-24T03:53:14;0.80;;;0.80;;
9968;SDS011;5025;48.890;9.278;2023-04-24T03:55:40;0.77;;;0.77;;
9968;SDS011;5025;48.890;9.278;2023-04-24T03:58:05;0.93;;;0.70;;
9968;SDS011;5025;48.890;9.278;2023-04-24T04:00:30;1.40;;;0.90;;
9968;SDS011;5025;48.890;9.278;2023-04-24T04:02:57;1.37;;;0.90;;
9968;SDS011;5025;48.890;9.278;2023-04-24T04:05:22;1.00;;;0.83;;
9968;SDS011;5025;48.890;9.278;2023-04-24T04:07:47;1.40;;;0.90;;
9968;SDS011;5025;48.890;9.278;2023-04-24T04:10:13;0.90;;;0.90;;
9968;SDS011;5025;48.890;9.278;2023-04-24T04:12:38;1.00;;;1.00;;
9968;SDS011;5025;48.890;9.278;2023-04-24T04:15:03;0.90;;;0.90;;
9968;SDS011;5025;48.890;9.278;2023-04-24T04:17:30;1.07;;;0.97;;
9968;SDS011;5025;48.890;9.278;2023-04-24T04:19:56;0.70;;;0.70;;
9968;SDS011;5025;48.890;9.278;2023-04-24T04:22:22;0.80;;;0.80;;
9968;SDS011;5025;48.890;9.278;2023-04-24T04:24:47;1.23;;;0.90;;
9968;SDS011;5025;48.890;9.278;2023-04-24T04:27:13;0.67;;;0.60;;
9968;SDS011;5025;48.890;9.278;2023-04-24T04:29:38;1.00;;;0.90;;
9968;SDS011;5025;48.890;9.278;2023-04-24T04:32:05;1.90;;;1.10;;
9968;SDS011;5025;48.890;9.278;2023-04-24T04:34:31;2.13;;;1.00;;
9968;SDS011;5025;48.890;9.278;2023-04-24T04:36:56;2.67;;;1.03;;
9968;SDS011;5025;48.890;9.278;2023-04-24T04:39:24;1.93;;;1.20;;
9968;SDS011;5025;48.890;9.278;2023-04-24T04:41:50;0.90;;;0.90;;
9968;SDS011;5025;48.890;9.278;2023-04-24T04:44:15;1.23;;;0.90;;
9968;SDS011;5025;48.890;9.278;2023-04-24T04:46:41;2.30;;;1.00;;
9968;SDS011;5025;48.890;9.278;2023-04-24T04:49:07;0.90;;;0.80;;
9968;SDS011;5025;48.890;9.278;2023-04-24T04:51:33;1.53;;;1.00;;
9968;SDS011;5025;48.890;9.278;2023-04-24T04:53:59;0.80;;;0.80;;
9968;SDS011;5025;48.890;9.278;2023-04-24T04:56:25;1.03;;;1.00;;
9968;SDS011;5025;48.890;9.278;2023-04-24T04:58:50;1.27;;;1.10;;
9968;SDS011;5025;48.890;9.278;2023-04-24T05:01:15;2.60;;;1.00;;
9968;SDS011;5025;48.890;9.278;2023-04-24T05:03:41;1.47;;;1.33;;
9968;SDS011;5025;48.890;9.278;2023-04-24T05:06:08;1.53;;;0.93;;
9968;SDS011;5025;48.890;9.278;2023-04-24T05:08:34;1.13;;;1.00;;
9968;SDS011;5025;48.890;9.278;2023-04-24T05:10:59;1.20;;;1.10;;
9968;SDS011;5025;48.890;9.278;2023-04-24T05:13:25;1.70;;;1.30;;
9968;SDS011;5025;48.890;9.278;2023-04-24T05:15:50;1.33;;;1.10;;
9968;SDS011;5025;48.890;9.278;2023-04-24T05:18:15;1.10;;;1.00;;
9968;SDS011;5025;48.890;9.278;2023-04-24T05:20:41;2.60;;;1.30;;
9968;SDS011;5025;48.890;9.278;2023-04-24T05:23:08;1.30;;;1.30;;
9968;SDS011;5025;48.890;9.278;2023-04-24T05:25:34;3.07;;;1.50;;
9968;SDS011;5025;48.890;9.278;2023-04-24T05:28:00;1.13;;;1.13;;
9968;SDS011;5025;48.890;9.278;2023-04-24T05:30:25;2.77;;;1.40;;
9968;SDS011;5025;48.890;9.278;2023-04-24T05:32:51;1.30;;;1.20;;
9968;SDS011;5025;48.890;9.278;2023-04-24T05:35:16;1.30;;;1.20;;
9968;SDS011;5025;48.890;9.278;2023-04-24T05:37:41;1.30;;;1.20;;
9968;SDS011;5025;48.890;9.278;2023-04-24T05:40:07;1.20;;;1.20;;
9968;SDS011;5025;48.890;9.278;2023-04-24T05:42:33;2.13;;;1.60;;
9968;SDS011;5025;48.890;9.278;2023-04-24T05:44:59;1.37;;;1.27;;
9968;SDS011;5025;48.890;9.278;2023-04-24T05:47:27;1.53;;;1.30;;
9968;SDS011;5025;48.890;9.278;2023-04-24T05:49:53;1.33;;;1.23;;
9968;SDS011;5025;48.890;9.278;2023-04-24T05:52:18;1.40;;;1.40;;
9968;SDS011;5025;48.890;9.278;2023-04-24T05:54:43;1.70;;;1.60;;
9968;SDS011;5025;48.890;9.278;2023-04-24T05:57:09;1.70;;;1.50;;
9968;SDS011;5025;48.890;9.278;2023-04-24T05:59:36;1.60;;;1.50;;
9968;SDS011;5025;48.890;9.278;2023-04-24T06:02:02;1.90;;;1.43;;
9968;SDS011;5025;48.890;9.278;2023-04-24T06:04:28;1.43;;;1.33;;
9968;SDS011;5025;48.890;9.278;2023-04-24T06:06:53;1.40;;;1.30;;
9968;SDS011;5025;48.890;9.278;2023-04-24T06:09:21;2.03;;;1.53;;
9968;SDS011;5025;48.890;9.278;2023-04-24T06:11:47;1.60;;;1.50;;
9968;SDS011;5025;48.890;9.278;2023-04-24T06:14:12;1.60;;;1.47;;
9968;SDS011;5025;48.890;9.278;2023-04-24T06:16:37;1.53;;;1.43;;
9968;SDS011;5025;48.890;9.278;2023-04-24T06:19:03;1.97;;;1.80;;
9968;SDS011;5025;48.890;9.278;2023-04-24T06:21:29;1.63;;;1.63;;
9968;SDS011;5025;48.890;9.278;2023-04-24T06:23:54;1.37;;;1.30;;
9968;SDS011;5025;48.890;9.278;2023-04-24T06:26:21;1.23;;;1.23;;
9968;SDS011;5025;48.890;9.278;2023-04-24T06:28:47;1.40;;;1.30;;
9968;SDS011;5025;48.890;9.278;2023-04-24T06:31:12;1.30;;;1.20;;
9968;SDS011;5025;48.890;9.278;2023-04-24T06:33:37;1.50;;;1.50;;
9968;SDS011;5025;48.890;9.278;2023-04-24T06:36:03;1.60;;;1.50;;
9968;SDS011;5025;48.890;9.278;2023-04-24T06:38:28;1.50;;;1.50;;
9968;SDS011;5025;48.890;9.278;2023-04-24T06:40:54;1.60;;;1.50;;
9968;SDS011;5025;48.890;9.278;2023-04-24T06:43:20;1.60;;;1.50;;
9968;SDS011;5025;48.890;9.278;2023-04-24T06:45:45;1.50;;;1.40;;
9968;SDS011;5025;48.890;9.278;2023-04-24T06:48:11;1.60;;;1.50;;
9968;SDS011;5025;48.890;9.278;2023-04-24T06:50:37;1.40;;;1.40;;
9968;SDS011;5025;48.890;9.278;2023-04-24T06:53:02;1.77;;;1.67;;
9968;SDS011;5025;48.890;9.278;2023-04-24T06:55:28;1.73;;;1.70;;
9968;SDS011;5025;48.890;9.278;2023-04-24T06:57:53;2.23;;;1.80;;
9968;SDS011;5025;48.890;9.278;2023-04-24T07:00:18;1.50;;;1.50;;
9968;SDS011;5025;48.890;9.278;2023-04-24T07:02:44;1.40;;;1.40;;
9968;SDS011;5025;48.890;9.278;2023-04-24T07:05:09;2.00;;;1.90;;
9968;SDS011;5025;48.890;9.278;2023-04-24T07:07:35;1.57;;;1.47;;
9968;SDS011;5025;48.890;9.278;2023-04-24T07:10:02;1.70;;;1.60;;
9968;SDS011;5025;48.890;9.278;2023-04-24T07:12:29;2.30;;;1.97;;
9968;SDS011;5025;48.890;9.278;2023-04-24T07:14:54;1.97;;;1.87;;
9968;SDS011;5025;48.890;9.278;2023-04-24T07:17:20;2.17;;;1.70;;
9968;SDS011;5025;48.890;9.278;2023-04-24T07:19:45;1.77;;;1.67;;
9968;SDS011;5025;48.890;9.278;2023-04-24T07:22:11;2.13;;;1.93;;
9968;SDS011;5025;48.890;9.278;2023-04-24T07:24:41;1.90;;;1.80;;
9968;SDS011;5025;48.890;9.278;2023-04-24T07:27:08;2.10;;;2.00;;
9968;SDS011;5025;48.890;9.278;2023-04-24T07:29:33;1.90;;;1.80;;
9968;SDS011;5025;48.890;9.278;2023-04-24T07:31:58;1.90;;;1.80;;
9968;SDS011;5025;48.890;9.278;2023-04-24T07:34:24;2.00;;;1.53;;
9968;SDS011;5025;48.890;9.278;2023-04-24T07:36:49;1.63;;;1.43;;
9968;SDS011;5025;48.890;9.278;2023-04-24T07:39:15;1.60;;;1.50;;
9968;SDS011;5025;48.890;9.278;2023-04-24T07:41:40;3.90;;;1.57;;
9968;SDS011;5025;48.890;9.278;2023-04-24T07:44:05;2.10;;;1.50;;
9968;SDS011;5025;48.890;9.278;2023-04-24T07:46:31;1.93;;;1.77;;
9968;SDS011;5025;48.890;9.278;2023-04-24T07:48:56;2.47;;;1.67;;
9968;SDS011;5025;48.890;9.278;2023-04-24T07:51:22;2.00;;;1.70;;
9968;SDS011;5025;48.890;9.278;2023-04-24T07:53:52;1.50;;;1.40;;
9968;SDS011;5025;48.890;9.278;2023-04-24T07:56:17;1.70;;;1.60;;
9968;SDS011;5025;48.890;9.278;2023-04-24T07:58:43;1.50;;;1.40;;
9968;SDS011;5025;48.890;9.278;2023-04-24T08:01:08;1.60;;;1.50;;
9968;SDS011;5025;48.890;9.278;2023-04-24T08:03:33;1.70;;;1.60;;
9968;SDS011;5025;48.890;9.278;2023-04-24T08:05:59;2.27;;;1.60;;
9968;SDS011;5025;48.890;9.278;2023-04-24T08:08:24;2.03;;;1.50;;
9968;SDS011;5025;48.890;9.278;2023-04-24T08:10:50;2.23;;;1.70;;
9968;SDS011;5025;48.890;9.278;2023-04-24T08:13:15;1.50;;;1.40;;
9968;SDS011;5025;48.890;9.278;2023-04-24T08:15:41;1.70;;;1.60;;
9968;SDS011;5025;48.890;9.278;2023-04-24T08:18:06;3.07;;;1.60;;
9968;SDS011;5025;48.890;9.278;2023-04-24T08:20:32;1.93;;;1.70;;
9968;SDS011;5025;48.890;9.278;2023-04-24T08:22:57;2.13;;;1.57;;
9968;SDS011;5025;48.890;9.278;2023-04-24T08:25:22;2.40;;;1.60;;
9968;SDS011;5025;48.890;9.278;2023-04-24T08:27:49;1.20;;;1.20;;
9968;SDS011;5025;48.890;9.278;2023-04-24T08:30:15;1.50;;;1.40;;
9968;SDS011;5025;48.890;9.278;2023-04-24T08:32:40;1.60;;;1.50;;
9968;SDS011;5025;48.890;9.278;2023-04-24T08:35:06;2.00;;;1.57;;
9968;SDS011;5025;48.890;9.278;2023-04-24T08:37:34;1.53;;;1.30;;
9968;SDS011;5025;48.890;9.278;2023-04-24T08:39:59;1.60;;;1.47;;
9968;SDS011;5025;48.890;9.278;2023-04-24T08:42:24;1.50;;;1.40;;
9968;SDS011;5025;48.890;9.278;2023-04-24T08:44:53;1.60;;;1.50;;
9968;SDS011;5025;48.890;9.278;2023-04-24T08:47:19;1.47;;;1.37;;
9968;SDS011;5025;48.890;9.278;2023-04-24T08:49:46;1.20;;;1.20;;
9968;SDS011;5025;48.890;9.278;2023-04-24T08:52:13;1.50;;;1.27;;
9968;SDS011;5025;48.890;9.278;2023-04-24T08:54:40;1.57;;;1.30;;
9968;SDS011;5025;48.890;9.278;2023-04-24T08:57:08;1.30;;;1.30;;
9968;SDS011;5025;48.890;9.278;2023-04-24T08:59:36;1.87;;;1.20;;
9968;SDS011;5025;48.890;9.278;2023-04-24T09:02:02;1.20;;;1.20;;
9968;SDS011;5025;48.890;9.278;2023-04-24T09:04:29;1.30;;;1.20;;
9968;SDS011;5025;48.890;9.278;2023-04-24T09:06:55;1.20;;;1.20;;
9968;SDS011;5025;48.890;9.278;2023-04-24T09:09:22;1.80;;;1.30;;
9968;SDS011;5025;48.890;9.278;2023-04-24T09:11:54;1.33;;;1.23;;
9968;SDS011;5025;48.890;9.278;2023-04-24T09:14:20;1.60;;;1.30;;
9968;SDS011;5025;48.890;9.278;2023-04-24T09:16:48;1.10;;;1.10;;
9968;SDS011;5025;48.890;9.278;2023-04-24T09:19:13;2.90;;;1.23;;
9968;SDS011;5025;48.890;9.278;2023-04-24T09:21:38;1.87;;;1.43;;
9968;SDS011;5025;48.890;9.278;2023-04-24T09:24:05;1.50;;;1.40;;
9968;SDS011;5025;48.890;9.278;2023-04-24T09:26:38;2.87;;;1.40;;
9968;SDS011;5025;48.890;9.278;2023-04-24T09:29:04;1.90;;;1.40;;
9968;SDS011;5025;48.890;9.278;2023-04-24T09:31:30;2.40;;;1.40;;
9968;SDS011;5025;48.890;9.278;2023-04-24T09:38:57;1.27;;;1.20;;
9968;SDS011;5025;48.890;9.278;2023-04-24T09:41:23;1.20;;;1.20;;
9968;SDS011;5025;48.890;9.278;2023-04-24T09:43:48;1.87;;;1.77;;
9968;SDS011;5025;48.890;9.278;2023-04-24T09:46:14;1.40;;;1.30;;
9968;SDS011;5025;48.890;9.278;2023-04-24T09:48:43;2.00;;;1.90;;
9968;SDS011;5025;48.890;9.278;2023-04-24T09:51:09;2.40;;;1.87;;
9968;SDS011;5025;48.890;9.278;2023-04-24T09:53:37;3.53;;;1.70;;
9968;SDS011;5025;48.890;9.278;2023-04-24T09:56:10;1.40;;;1.30;;
9968;SDS011;5025;48.890;9.278;2023-04-24T09:58:37;1.67;;;1.10;;
9968;SDS011;5025;48.890;9.278;2023-04-24T10:01:03;1.17;;;1.17;;
9968;SDS011;5025;48.890;9.278;2023-04-24T10:03:31;1.10;;;1.10;;
9968;SDS011;5025;48.890;9.278;2023-04-24T10:06:01;1.13;;;1.10;;
9968;SDS011;5025;48.890;9.278;2023-04-24T10:08:33;1.20;;;1.10;;
9968;SDS011;5025;48.890;9.278;2023-04-24T10:11:00;1.10;;;1.10;;
9968;SDS011;5025;48.890;9.278;2023-04-24T10:13:26;1.13;;;1.13;;
9968;SDS011;5025;48.890;9.278;2023-04-24T10:15:52;1.57;;;0.97;;
9968;SDS011;5025;48.890;9.278;2023-04-24T10:18:19;2.27;;;1.50;;
9968;SDS011;5025;48.890;9.278;2023-04-24T10:20:46;1.20;;;1.20;;
9968;SDS011;5025;48.890;9.278;2023-04-24T10:23:11;1.23;;;1.23;;
9968;SDS011;5025;48.890;9.278;2023-04-24T10:25:37;1.20;;;1.20;;
9968;SDS011;5025;48.890;9.278;2023-04-24T10:28:03;1.50;;;1.40;;
9968;SDS011;5025;48.890;9.278;2023-04-24T10:30:30;2.43;;;1.17;;
9968;SDS011;5025;48.890;9.278;2023-04-24T10:33:00;1.30;;;1.20;;
9968;SDS011;5025;48.890;9.278;2023-04-24T10:35:25;1.37;;;1.30;;
9968;SDS011;5025;48.890;9.278;2023-04-24T10:37:59;1.30;;;1.20;;
9968;SDS011;5025;48.890;9.278;2023-04-24T10:40:33;1.30;;;1.30;;
9968;SDS011;5025;48.890;9.278;2023-04-24T10:43:01;2.40;;;1.37;;
9968;SDS011;5025;48.890;9.278;2023-04-24T10:45:31;1.63;;;1.40;;
9968;SDS011;5025;48.890;9.278;2023-04-24T10:50:28;1.40;;;1.30;;
9968;SDS011;5025;48.890;9.278;2023-04-24T10:53:04;1.40;;;1.30;;
9968;SDS011;5025;48.890;9.278;2023-04-24T10:55:48;8.57;;;1.77;;
9968;SDS011;5025;48.890;9.278;2023-04-24T10:58:51;1.37;;;1.27;;
9968;SDS011;5025;48.890;9.278;2023-04-24T11:01:28;2.20;;;1.50;;
9968;SDS011;5025;48.890;9.278;2023-04-24T11:03:57;3.33;;;2.03;;
9968;SDS011;5025;48.890;9.278;2023-04-24T11:06:33;2.20;;;1.40;;
9968;SDS011;5025;48.890;9.278;2023-04-24T11:09:07;1.67;;;1.57;;
9968;SDS011;5025;48.890;9.278;2023-04-24T11:11:34;1.67;;;1.57;;
9968;SDS011;5025;48.890;9.278;2023-04-24T11:14:03;1.43;;;1.33;;
9968;SDS011;5025;48.890;9.278;2023-04-24T11:16:35;2.83;;;1.30;;
9968;SDS011;5025;48.890;9.278;2023-04-24T11:24:21;1.20;;;1.20;;
9968;SDS011;5025;48.890;9.278;2023-04-24T11:29:38;1.30;;;1.20;;
9968;SDS011;5025;48.890;9.278;2023-04-24T11:35:08;1.17;;;1.10;;
9968;SDS011;5025;48.890;9.278;2023-04-24T11:37:40;1.37;;;1.33;;
9968;SDS011;5025;48.890;9.278;2023-04-24T11:40:07;1.50;;;1.50;;
9968;SDS011;5025;48.890;9.278;2023-04-24T11:42:36;1.40;;;1.40;;
9968;SDS011;5025;48.890;9.278;2023-04-24T11:45:08;2.20;;;1.80;;
9968;SDS011;5025;48.890;9.278;2023-04-24T11:47:38;1.50;;;1.50;;
9968;SDS011;5025;48.890;9.278;2023-04-24T11:50:05;1.80;;;1.70;;
9968;SDS011;5025;48.890;9.278;2023-04-24T11:52:33;1.73;;;1.63;;
9968;SDS011;5025;48.890;9.278;2023-04-24T11:55:02;1.83;;;1.73;;
9968;SDS011;5025;48.890;9.278;2023-04-24T11:57:28;1.43;;;1.33;;
9968;SDS011;5025;48.890;9.278;2023-04-24T11:59:58;1.40;;;1.30;;
9968;SDS011;5025;48.890;9.278;2023-04-24T12:02:25;1.40;;;1.30;;
9968;SDS011;5025;48.890;9.278;2023-04-24T12:04:52;1.37;;;1.30;;
9968;SDS011;5025;48.890;9.278;2023-04-24T12:07:18;1.10;;;1.10;;
9968;SDS011;5025;48.890;9.278;2023-04-24T12:12:27;1.40;;;1.30;;
9968;SDS011;5025;48.890;9.278;2023-04-24T12:14:54;1.60;;;1.50;;
9968;SDS011;5025;48.890;9.278;2023-04-24T12:17:24;1.50;;;1.33;;
9968;SDS011;5025;48.890;9.278;2023-04-24T12:19:52;1.50;;;1.40;;
9968;SDS011;5025;48.890;9.278;2023-04-24T12:22:18;1.40;;;1.30;;
9968;SDS011;5025;48.890;9.278;2023-04-24T12:25:00;1.60;;;1.50;;
9968;SDS011;5025;48.890;9.278;2023-04-24T12:27:33;1.60;;;1.50;;
9968;SDS011;5025;48.890;9.278;2023-04-24T12:30:00;1.57;;;1.47;;
9968;SDS011;5025;48.890;9.278;2023-04-24T12:32:26;1.63;;;1.53;;
9968;SDS011;5025;48.890;9.278;2023-04-24T12:34:52;1.73;;;1.63;;
9968;SDS011;5025;48.890;9.278;2023-04-24T12:37:18;1.60;;;1.50;;
9968;SDS011;5025;48.890;9.278;2023-04-24T12:39:46;2.03;;;1.53;;
9968;SDS011;5025;48.890;9.278;2023-04-24T12:42:31;1.33;;;1.33;;
9968;SDS011;5025;48.890;9.278;2023-04-24T12:44:57;1.43;;;1.43;;
9968;SDS011;5025;48.890;9.278;2023-04-24T12:47:27;1.43;;;1.40;;
9968;SDS011;5025;48.890;9.278;2023-04-24T12:49:54;1.73;;;1.50;;
9968;SDS011;5025;48.890;9.278;2023-04-24T12:52:20;1.63;;;1.30;;
9968;SDS011;5025;48.890;9.278;2023-04-24T12:54:47;3.47;;;1.70;;
9968;SDS011;5025;48.890;9.278;2023-04-24T12:57:12;3.00;;;1.30;;
9968;SDS011;5025;48.890;9.278;2023-04-24T12:59:38;2.83;;;1.43;;
9968;SDS011;5025;48.890;9.278;2023-04-24T13:02:04;2.37;;;1.43;;
9968;SDS011;5025;48.890;9.278;2023-04-24T13:04:30;5.40;;;1.63;;
9968;SDS011;5025;48.890;9.278;2023-04-24T13:06:55;1.80;;;1.70;;
9968;SDS011;5025;48.890;9.278;2023-04-24T13:09:20;2.60;;;1.70;;
9968;SDS011;5025;48.890;9.278;2023-04-24T13:11:45;1.40;;;1.40;;
9968;SDS011;5025;48.890;9.278;2023-04-24T13:14:11;1.40;;;1.30;;
9968;SDS011;5025;48.890;9.278;2023-04-24T13:16:36;1.10;;;1.10;;
9968;SDS011;5025;48.890;9.278;2023-04-24T13:19:01;1.40;;;1.40;;
9968;SDS011;5025;48.890;9.278;2023-04-24T13:21:27;3.00;;;1.63;;
9968;SDS011;5025;48.890;9.278;2023-04-24T13:23:52;1.70;;;1.60;;
9968;SDS011;5025;48.890;9.278;2023-04-24T13:26:18;1.63;;;1.60;;
9968;SDS011;5025;48.890;9.278;2023-04-24T13:28:43;2.03;;;1.73;;
9968;SDS011;5025;48.890;9.278;2023-04-24T13:31:09;1.80;;;1.70;;
9968;SDS011;5025;48.890;9.278;2023-04-24T13:33:34;1.90;;;1.80;;
9968;SDS011;5025;48.890;9.278;2023-04-24T13:36:00;2.10;;;1.90;;
9968;SDS011;5025;48.890;9.278;2023-04-24T13:38:25;2.20;;;2.00;;
9968;SDS011;5025;48.890;9.278;2023-04-24T13:40:50;2.13;;;1.93;;
9968;SDS011;5025;48.890;9.278;2023-04-24T13:43:16;3.67;;;2.00;;
9968;SDS011;5025;48.890;9.278;2023-04-24T13:45:41;2.00;;;1.90;;
9968;SDS011;5025;48.890;9.278;2023-04-24T13:48:06;2.00;;;1.90;;
9968;SDS011;5025;48.890;9.278;2023-04-24T13:50:33;2.20;;;2.00;;
9968;SDS011;5025;48.890;9.278;2023-04-24T13:52:59;2.07;;;1.97;;
9968;SDS011;5025;48.890;9.278;2023-04-24T13:55:25;2.00;;;1.90;;
9968;SDS011;5025;48.890;9.278;2023-04-24T13:57:50;2.10;;;2.00;;
9968;SDS011;5025;48.890;9.278;2023-04-24T14:00:17;3.80;;;1.90;;
9968;SDS011;5025;48.890;9.278;2023-04-24T14:02:42;2.20;;;2.00;;
9968;SDS011;5025;48.890;9.278;2023-04-24T14:05:08;2.30;;;2.10;;
9968;SDS011;5025;48.890;9.278;2023-04-24T14:07:35;2.73;;;2.10;;
9968;SDS011;5025;48.890;9.278;2023-04-24T14:10:01;2.33;;;1.87;;
9968;SDS011;5025;48.890;9.278;2023-04-24T14:12:26;2.13;;;1.93;;
9968;SDS011;5025;48.890;9.278;2023-04-24T14:14:52;1.90;;;1.80;;
9968;SDS011;5025;48.890;9.278;2023-04-24T14:17:17;1.80;;;1.70;;
9968;SDS011;5025;48.890;9.278;2023-04-24T14:19:42;1.70;;;1.60;;
9968;SDS011;5025;48.890;9.278;2023-04-24T14:22:08;1.83;;;1.73;;
9968;SDS011;5025;48.890;9.278;2023-04-24T14:24:35;2.07;;;1.90;;
9968;SDS011;5025;48.890;9.278;2023-04-24T14:27:01;2.40;;;2.03;;
9968;SDS011;5025;48.890;9.278;2023-04-24T14:29:26;2.13;;;1.67;;
9968;SDS011;5025;48.890;9.278;2023-04-24T14:31:51;2.77;;;1.60;;
9968;SDS011;5025;48.890;9.278;2023-04-24T14:34:17;1.73;;;1.63;;
9968;SDS011;5025;48.890;9.278;2023-04-24T14:36:42;2.07;;;1.63;;
9968;SDS011;5025;48.890;9.278;2023-04-24T14:39:07;3.87;;;1.50;;
9968;SDS011;5025;48.890;9.278;2023-04-24T14:41:33;2.10;;;1.90;;
9968;SDS011;5025;48.890;9.278;2023-04-24T14:44:01;2.00;;;1.53;;
9968;SDS011;5025;48.890;9.278;2023-04-24T14:46:27;1.43;;;1.27;;
9968;SDS011;5025;48.890;9.278;2023-04-24T14:48:53;2.27;;;1.70;;
9968;SDS011;5025;48.890;9.278;2023-04-24T14:51:18;2.53;;;1.70;;
9968;SDS011;5025;48.890;9.278;2023-04-24T14:53:43;1.87;;;1.77;;
9968;SDS011;5025;48.890;9.278;2023-04-24T14:56:11;1.87;;;1.77;;
9968;SDS011;5025;48.890;9.278;2023-04-24T14:58:36;2.00;;;1.70;;
9968;SDS011;5025;48.890;9.278;2023-04-24T15:01:02;1.80;;;1.70;;
9968;SDS011;5025;48.890;9.278;2023-04-24T15:03:27;1.60;;;1.43;;
9968;SDS011;5025;48.890;9.278;2023-04-24T15:05:54;1.70;;;1.60;;
9968;SDS011;5025;48.890;9.278;2023-04-24T15:08:19;1.60;;;1.50;;
9968;SDS011;5025;48.890;9.278;2023-04-24T15:10:45;1.53;;;1.40;;
9968;SDS011;5025;48.890;9.278;2023-04-24T15:13:10;1.50;;;1.40;;
9968;SDS011;5025;48.890;9.278;2023-04-24T15:15:36;4.63;;;3.30;;
9968;SDS011;5025;48.890;9.278;2023-04-24T15:18:02;2.30;;;2.10;;
9968;SDS011;5025;48.890;9.278;2023-04-24T15:20:27;1.60;;;1.50;;
9968;SDS011;5025;48.890;9.278;2023-04-24T15:22:52;1.70;;;1.60;;
9968;SDS011;5025;48.890;9.278;2023-04-24T15:25:18;1.80;;;1.70;;
9968;SDS011;5025;48.890;9.278;2023-04-24T15:27:44;2.40;;;1.63;;
9968;SDS011;5025;48.890;9.278;2023-04-24T15:30:10;2.97;;;1.80;;
9968;SDS011;5025;48.890;9.278;2023-04-24T15:32:37;1.43;;;1.43;;